Time;durP1;ratioP1;P1;durP2;ratioP2;P2;SDS_P1;SDS_P2;PMS_P1;PMS_P2;Temp;Humidity;BMP_temperature;BMP_pressure;BME280_temperature;BME280_humidity;BME280_pressure;Samples;Min_cycle;Max_cycle;Signal;HPM_P1;HPM_P2
2023/10/01 00:02:26;;;;;;;13.55;6.50;;;;;;;;;;5012972;28;20371;-68
2023/10/01 00:05:11;;;;;;;12.85;7.22;;;;;;;;;;4994236;28;20037;-67
2023/10/01 00:07:56;;;;;;;13.80;6.35;;;;;;;;;;5014030;28;20099;-67
2023/10/01 00:10:41;;;;;;;11.70;5.40;;;;;;;;;;5013534;28;20022;-75
2023/10/01 00:13:30;;;;;;;14.57;7.05;;;;;;;;;;5014079;28;20049;-74
2023/10/01 00:16:15;;;;;;;15.23;6.68;;;;;;;;;;5000812;28;20032;-75
2023/10/01 00:19:00;;;;;;;12.20;6.55;;;;;;;;;;5013732;28;20464;-74
2023/10/01 00:21:46;;;;;;;17.67;6.88;;;;;;;;;;5013787;28;20032;-77
2023/10/01 00:24:33;;;;;;;15.68;7.45;;;;;;;;;;5013901;28;20043;-76
2023/10/01 00:27:18;;;;;;;13.82;6.05;;;;;;;;;;5003818;28;20037;-72
2023/10/01 00:30:04;;;;;;;14.38;7.55;;;;;;;;;;4997753;28;20589;-76
2023/10/01 00:32:49;;;;;;;13.30;6.55;;;;;;;;;;5000551;28;20405;-76
2023/10/01 00:35:38;;;;;;;11.68;6.57;;;;;;;;;;5001818;28;20045;-76
2023/10/01 00:38:25;;;;;;;13.73;7.28;;;;;;;;;;5018731;28;20045;-76
2023/10/01 00:41:11;;;;;;;15.45;6.45;;;;;;;;;;5012890;28;20053;-76
2023/10/01 00:44:00;;;;;;;15.02;5.93;;;;;;;;;;5013320;28;20193;-74
2023/10/01 00:46:45;;;;;;;12.23;5.82;;;;;;;;;;5011261;28;20088;-74
2023/10/01 00:49:33;;;;;;;13.77;6.85;;;;;;;;;;5013540;28;20486;-75
2023/10/01 00:52:19;;;;;;;13.63;6.45;;;;;;;;;;4999544;28;20543;-75
2023/10/01 00:55:05;;;;;;;13.82;6.90;;;;;;;;;;5013139;28;20072;-75
2023/10/01 00:57:53;;;;;;;14.70;7.32;;;;;;;;;;5012017;28;20033;-75
2023/10/01 01:00:38;;;;;;;12.73;5.85;;;;;;;;;;5010554;28;20380;-75
2023/10/01 01:03:23;;;;;;;12.43;6.68;;;;;;;;;;5010652;28;20037;-75
2023/10/01 01:06:23;;;;;;;13.32;7.57;;;;;;;;;;5005241;28;20042;-66
2023/10/01 01:09:11;;;;;;;16.52;7.68;;;;;;;;;;5001684;28;20572;-70
2023/10/01 01:11:56;;;;;;;14.05;6.40;;;;;;;;;;5021249;28;20037;-74
2023/10/01 01:14:45;;;;;;;15.82;6.15;;;;;;;;;;5016210;28;20041;-72
2023/10/01 01:17:31;;;;;;;12.93;5.65;;;;;;;;;;5014496;28;20033;-70
2023/10/01 01:20:16;;;;;;;12.20;6.40;;;;;;;;;;5014372;28;20072;-70
2023/10/01 01:23:05;;;;;;;13.43;7.15;;;;;;;;;;5014285;28;20041;-68
2023/10/01 01:25:52;;;;;;;13.57;5.80;;;;;;;;;;5006243;28;20041;-71
2023/10/01 01:28:37;;;;;;;14.90;6.82;;;;;;;;;;5005394;28;20111;-71
2023/10/01 01:31:27;;;;;;;13.32;6.47;;;;;;;;;;5013569;28;20029;-70
2023/10/01 01:34:15;;;;;;;;;;;;;;;;;;5014562;28;20041;-71
2023/10/01 01:37:06;;;;;;;12.18;5.80;;;;;;;;;;5013783;28;19999;-72
2023/10/01 01:39:52;;;;;;;13.95;5.80;;;;;;;;;;5013846;28;20523;-74
2023/10/01 01:42:38;;;;;;;14.75;6.72;;;;;;;;;;5014774;28;20040;-70
2023/10/01 01:45:32;;;;;;;13.50;6.72;;;;;;;;;;5013745;28;20392;-65
2023/10/01 01:48:34;;;;;;;15.20;6.40;;;;;;;;;;5011663;28;20036;-69
2023/10/01 01:51:20;;;;;;;13.10;6.65;;;;;;;;;;5016208;28;20069;-66
2023/10/01 01:54:06;;;;;;;13.90;5.95;;;;;;;;;;5016153;28;20479;-65
2023/10/01 01:56:51;;;;;;;16.13;7.30;;;;;;;;;;5016174;28;20064;-65
2023/10/01 01:59:38;;;;;;;13.40;6.50;;;;;;;;;;5016390;28;20092;-69
2023/10/01 02:02:23;;;;;;;13.15;7.43;;;;;;;;;;5016202;28;20087;-73
2023/10/01 02:05:09;;;;;;;12.88;6.32;;;;;;;;;;5015631;28;20495;-73
2023/10/01 02:07:54;;;;;;;15.77;6.35;;;;;;;;;;5016268;28;20045;-76
2023/10/01 02:10:46;;;;;;;15.85;6.15;;;;;;;;;;5016418;28;20037;-76
2023/10/01 02:13:32;;;;;;;12.82;5.57;;;;;;;;;;5001555;28;20049;-76
2023/10/01 02:19:14;;;;;;;15.30;7.45;;;;;;;;;;5015817;28;20041;-78
2023/10/01 02:22:00;;;;;;;15.38;5.97;;;;;;;;;;5015107;28;20037;-75
2023/10/01 02:24:45;;;;;;;15.00;6.85;;;;;;;;;;5014561;28;20063;-76
2023/10/01 02:27:41;;;;;;;12.52;6.00;;;;;;;;;;5007603;28;20451;-77
2023/10/01 02:30:26;;;;;;;11.65;6.38;;;;;;;;;;5009670;28;20029;-77
2023/10/01 02:33:21;;;;;;;13.82;6.47;;;;;;;;;;5015605;28;20087;-77
2023/10/01 02:36:12;;;;;;;11.88;6.13;;;;;;;;;;5015656;28;20120;-71
2023/10/01 02:38:57;;;;;;;11.20;5.70;;;;;;;;;;5015015;28;20161;-71
2023/10/01 02:42:03;;;;;;;14.50;6.50;;;;;;;;;;5001222;28;20381;-72
2023/10/01 02:44:48;;;;;;;14.52;6.82;;;;;;;;;;5011491;28;20079;-72
2023/10/01 02:47:34;;;;;;;12.98;6.18;;;;;;;;;;5012878;28;20573;-72
2023/10/01 02:50:20;;;;;;;15.80;5.50;;;;;;;;;;5012443;28;20037;-71
2023/10/01 02:53:05;;;;;;;13.68;6.45;;;;;;;;;;5012483;28;20108;-73
2023/10/01 02:55:51;;;;;;;13.38;6.65;;;;;;;;;;5013999;28;20021;-77
2023/10/01 02:58:37;;;;;;;13.10;6.35;;;;;;;;;;5009120;28;20037;-76
2023/10/01 03:01:22;;;;;;;11.75;6.38;;;;;;;;;;5010840;28;20037;-76
2023/10/01 03:04:13;;;;;;;11.07;5.40;;;;;;;;;;5014504;28;20103;-76
2023/10/01 03:07:04;;;;;;;15.07;6.07;;;;;;;;;;5014178;28;20033;-77
2023/10/01 03:09:53;;;;;;;13.95;6.10;;;;;;;;;;5014848;28;20064;-77
2023/10/01 03:12:40;;;;;;;12.75;6.22;;;;;;;;;;4995645;28;20034;-72
2023/10/01 03:21:18;;;;;;;13.60;5.90;;;;;;;;;;5014333;28;20036;-72
2023/10/01 03:24:03;;;;;;;11.70;6.38;;;;;;;;;;5011248;28;20051;-74
2023/10/01 03:26:49;;;;;;;11.13;5.57;;;;;;;;;;5002356;28;20036;-72
2023/10/01 03:29:37;;;;;;;14.15;6.65;;;;;;;;;;5013922;28;20092;-71
2023/10/01 03:32:28;;;;;;;14.65;7.78;;;;;;;;;;5002175;28;20037;-71
2023/10/01 03:35:14;;;;;;;14.98;5.85;;;;;;;;;;5013098;28;20103;-76
2023/10/01 03:38:14;;;;;;;12.85;5.78;;;;;;;;;;5014280;28;20547;-76
2023/10/01 03:41:08;;;;;;;16.05;6.82;;;;;;;;;;4994883;28;20033;-74
2023/10/01 03:44:09;;;;;;;14.35;6.28;;;;;;;;;;5012039;28;20498;-74
2023/10/01 03:46:55;;;;;;;14.30;6.43;;;;;;;;;;5014018;28;20336;-74
2023/10/01 03:49:46;;;;;;;10.40;5.55;;;;;;;;;;5003797;28;20037;-76
2023/10/01 03:52:39;;;;;;;12.30;6.57;;;;;;;;;;5014177;28;20069;-71
2023/10/01 03:58:18;;;;;;;14.00;7.18;;;;;;;;;;5013258;28;20079;-76
2023/10/01 04:01:15;;;;;;;14.30;5.97;;;;;;;;;;5012832;28;20056;-74
2023/10/01 04:04:00;;;;;;;13.38;6.28;;;;;;;;;;5012886;28;20033;-75
2023/10/01 04:06:45;;;;;;;12.65;6.05;;;;;;;;;;5011802;28;20407;-76
2023/10/01 04:09:38;;;;;;;13.15;6.38;;;;;;;;;;5012980;28;20037;-73
2023/10/01 04:12:32;;;;;;;14.90;6.43;;;;;;;;;;5015895;28;20029;-74
2023/10/01 04:15:30;;;;;;;11.60;5.78;;;;;;;;;;5014048;28;20303;-74
2023/10/01 04:23:50;;;;;;;11.57;6.10;;;;;;;;;;5003097;28;20032;-76
2023/10/01 04:26:35;;;;;;;10.95;5.63;;;;;;;;;;5001476;28;20037;-71
2023/10/01 04:29:24;;;;;;;10.93;5.43;;;;;;;;;;5014073;28;20033;-64
2023/10/01 04:32:09;;;;;;;11.73;6.00;;;;;;;;;;5012598;28;20464;-76
2023/10/01 04:34:56;;;;;;;12.18;6.10;;;;;;;;;;5013427;28;20029;-75
2023/10/01 04:37:42;;;;;;;14.20;7.20;;;;;;;;;;5013211;28;20480;-77
2023/10/01 04:40:37;;;;;;;11.48;5.32;;;;;;;;;;5013404;28;20025;-76
2023/10/01 04:43:26;;;;;;;12.45;6.32;;;;;;;;;;5013435;28;20033;-76
2023/10/01 04:46:11;;;;;;;15.20;7.10;;;;;;;;;;5015386;28;20033;-71
2023/10/01 04:48:56;;;;;;;14.38;6.80;;;;;;;;;;5002507;28;20033;-76
2023/10/01 04:51:44;;;;;;;16.85;7.13;;;;;;;;;;5017306;28;20036;-75
2023/10/01 04:54:31;;;;;;;14.88;6.70;;;;;;;;;;5017427;28;20513;-75
2023/10/01 04:57:19;;;;;;;13.52;6.53;;;;;;;;;;5017296;28;20048;-75
2023/10/01 05:00:10;;;;;;;13.38;6.20;;;;;;;;;;5017222;28;20187;-75
2023/10/01 05:02:57;;;;;;;15.77;6.97;;;;;;;;;;5017313;28;20067;-70
2023/10/01 05:05:42;;;;;;;11.98;6.13;;;;;;;;;;5017261;28;20025;-67
2023/10/01 05:08:38;;;;;;;16.02;7.22;;;;;;;;;;5016990;28;20381;-75
2023/10/01 05:11:29;;;;;;;13.10;6.88;;;;;;;;;;5016972;28;20037;-73
2023/10/01 05:14:15;;;;;;;13.68;6.72;;;;;;;;;;5017119;28;20040;-74
2023/10/01 05:17:07;;;;;;;13.90;7.60;;;;;;;;;;5016717;28;20044;-76
2023/10/01 05:19:53;;;;;;;11.75;6.80;;;;;;;;;;5016088;28;20036;-74
2023/10/01 05:22:46;;;;;;;14.07;6.88;;;;;;;;;;5017154;28;20037;-68
2023/10/01 05:25:31;;;;;;;9.90;5.38;;;;;;;;;;5009375;28;20072;-70
2023/10/01 05:28:34;;;;;;;15.55;6.63;;;;;;;;;;5027018;28;20025;-71
2023/10/01 05:31:24;;;;;;;16.67;7.03;;;;;;;;;;5016519;28;20029;-72
2023/10/01 05:34:11;;;;;;;13.48;6.47;;;;;;;;;;5016701;28;20476;-71
2023/10/01 05:37:08;;;;;;;13.98;5.63;;;;;;;;;;5016521;28;20033;-71
2023/10/01 05:40:00;;;;;;;13.82;6.30;;;;;;;;;;5016749;28;20037;-76
2023/10/01 05:42:49;;;;;;;13.85;6.82;;;;;;;;;;5016241;28;20044;-71
2023/10/01 05:45:39;;;;;;;11.00;6.28;;;;;;;;;;5002966;28;20535;-63
2023/10/01 05:48:25;;;;;;;14.43;6.13;;;;;;;;;;5015929;28;20049;-66
2023/10/01 05:51:12;;;;;;;13.45;7.32;;;;;;;;;;5016716;28;20111;-66
2023/10/01 05:53:59;;;;;;;14.85;6.55;;;;;;;;;;5015994;28;20060;-68
2023/10/01 05:56:48;;;;;;;12.88;6.07;;;;;;;;;;5015907;28;20312;-65
2023/10/01 05:59:34;;;;;;;15.82;6.85;;;;;;;;;;5016039;28;20037;-70
2023/10/01 06:02:41;;;;;;;14.02;5.25;;;;;;;;;;5016026;28;20419;-72
2023/10/01 06:05:32;;;;;;;14.73;7.13;;;;;;;;;;5016260;28;20038;-74
2023/10/01 06:08:18;;;;;;;13.88;6.95;;;;;;;;;;5016243;28;20421;-73
2023/10/01 06:11:06;;;;;;;12.88;6.35;;;;;;;;;;5015928;28;20032;-69
2023/10/01 06:13:51;;;;;;;12.82;6.50;;;;;;;;;;5015522;28;20182;-72
2023/10/01 06:16:40;;;;;;;13.77;6.80;;;;;;;;;;5002656;28;20037;-72
2023/10/01 06:19:26;;;;;;;13.23;6.35;;;;;;;;;;5015848;28;20025;-73
2023/10/01 06:22:22;;;;;;;13.45;7.50;;;;;;;;;;5015982;28;20104;-73
2023/10/01 06:25:08;;;;;;;18.40;6.80;;;;;;;;;;5011225;28;20057;-73
2023/10/01 06:28:07;;;;;;;14.73;7.20;;;;;;;;;;5010573;28;20392;-72
2023/10/01 06:30:52;;;;;;;;;;;;;;;;;;5015977;28;20029;-74
2023/10/01 06:33:38;;;;;;;12.73;6.05;;;;;;;;;;5002142;28;19920;-73
2023/10/01 06:36:25;;;;;;;14.15;6.10;;;;;;;;;;5015711;28;20029;-70
2023/10/01 06:39:20;;;;;;;13.88;6.15;;;;;;;;;;5015711;28;20036;-76
2023/10/01 06:42:23;;;;;;;11.82;6.18;;;;;;;;;;5015217;28;20496;-75
2023/10/01 06:45:09;;;;;;;14.57;7.25;;;;;;;;;;5015652;28;20033;-75
2023/10/01 06:48:05;;;;;;;16.65;8.65;;;;;;;;;;5007450;28;20064;-74
2023/10/01 06:50:51;;;;;;;13.57;7.57;;;;;;;;;;5015359;28;20484;-74
2023/10/01 06:53:45;;;;;;;12.70;5.95;;;;;;;;;;5015374;28;20018;-69
2023/10/01 06:56:33;;;;;;;13.88;6.03;;;;;;;;;;4999868;28;20365;-77
2023/10/01 06:59:18;;;;;;;12.20;5.95;;;;;;;;;;5015119;28;20515;-70
2023/10/01 07:02:04;;;;;;;13.10;6.55;;;;;;;;;;5014669;28;20468;-72
2023/10/01 07:04:56;;;;;;;12.40;6.50;;;;;;;;;;5015129;28;20103;-70
2023/10/01 07:07:42;;;;;;;12.77;5.97;;;;;;;;;;5014687;28;20035;-70
2023/10/01 07:10:28;;;;;;;13.32;6.40;;;;;;;;;;5011843;28;20034;-70
2023/10/01 07:13:15;;;;;;;15.13;7.60;;;;;;;;;;5001345;28;20314;-67
2023/10/01 07:16:00;;;;;;;12.27;6.07;;;;;;;;;;5014906;28;20063;-67
2023/10/01 07:18:45;;;;;;;13.52;6.45;;;;;;;;;;5015079;28;20033;-67
2023/10/01 07:21:33;;;;;;;15.98;6.82;;;;;;;;;;5014695;28;20601;-66
2023/10/01 07:24:20;;;;;;;14.48;7.72;;;;;;;;;;5015011;28;20083;-65
2023/10/01 07:27:06;;;;;;;12.10;5.78;;;;;;;;;;5003152;28;20061;-64
2023/10/01 07:29:54;;;;;;;14.20;6.10;;;;;;;;;;5014658;28;20040;-65
2023/10/01 07:32:41;;;;;;;16.63;6.93;;;;;;;;;;5006726;28;20037;-69
2023/10/01 07:35:28;;;;;;;14.88;6.63;;;;;;;;;;5013211;28;20218;-70
2023/10/01 07:38:15;;;;;;;16.13;7.15;;;;;;;;;;5011024;28;20061;-70
2023/10/01 07:41:07;;;;;;;16.17;6.88;;;;;;;;;;5011444;28;20404;-71
2023/10/01 07:43:55;;;;;;;16.55;7.10;;;;;;;;;;5013089;28;20098;-72
2023/10/01 07:46:42;;;;;;;18.27;6.63;;;;;;;;;;5013247;28;20043;-72
2023/10/01 07:49:41;;;;;;;14.02;6.07;;;;;;;;;;5013910;28;20025;-75
2023/10/01 07:52:26;;;;;;;12.40;5.75;;;;;;;;;;5014174;28;20029;-69
2023/10/01 07:55:35;;;;;;;17.42;7.28;;;;;;;;;;5014300;28;20365;-69
2023/10/01 07:58:23;;;;;;;11.50;5.60;;;;;;;;;;5013827;28;20033;-70
2023/10/01 08:07:17;;;;;;;13.45;5.70;;;;;;;;;;5009400;28;20021;-72
2023/10/01 08:10:04;;;;;;;12.35;6.68;;;;;;;;;;5001987;28;20029;-73
2023/10/01 08:15:57;;;;;;;13.93;6.70;;;;;;;;;;5013724;28;20045;-79
2023/10/01 08:18:46;;;;;;;16.38;7.30;;;;;;;;;;5013492;28;20570;-76
2023/10/01 08:21:37;;;;;;;15.70;7.15;;;;;;;;;;5013237;28;20033;-77
2023/10/01 08:24:33;;;;;;;14.38;6.32;;;;;;;;;;5013532;28;20036;-77
2023/10/01 08:27:31;;;;;;;11.95;6.45;;;;;;;;;;5003794;28;20046;-71
2023/10/01 08:30:20;;;;;;;11.73;5.95;;;;;;;;;;4996901;28;20405;-72
2023/10/01 08:33:22;;;;;;;13.75;6.47;;;;;;;;;;5013839;28;20030;-73
2023/10/01 08:36:13;;;;;;;13.35;6.68;;;;;;;;;;5014139;28;20045;-73
2023/10/01 08:42:09;;;;;;;12.90;6.45;;;;;;;;;;5013587;28;20030;-74
2023/10/01 08:45:05;;;;;;;12.93;5.50;;;;;;;;;;5013700;28;20099;-71
2023/10/01 08:47:51;;;;;;;11.82;6.15;;;;;;;;;;5005136;28;20033;-71
2023/10/01 08:50:38;;;;;;;12.10;6.30;;;;;;;;;;4999508;28;20480;-68
2023/10/01 08:53:23;;;;;;;13.68;6.95;;;;;;;;;;5013788;28;20045;-71
2023/10/01 08:56:32;;;;;;;13.40;6.53;;;;;;;;;;5013989;28;20021;-70
2023/10/01 08:59:23;;;;;;;13.90;6.25;;;;;;;;;;5013950;28;20041;-68
2023/10/01 09:02:16;;;;;;;13.32;6.40;;;;;;;;;;5013455;28;20088;-78
2023/10/01 09:05:07;;;;;;;11.50;5.53;;;;;;;;;;4986909;28;20029;-75
2023/10/01 09:11:00;;;;;;;12.10;6.43;;;;;;;;;;5013367;28;20116;-71
2023/10/01 09:13:47;;;;;;;13.27;6.47;;;;;;;;;;5013576;28;20033;-70
2023/10/01 09:16:32;;;;;;;12.07;6.30;;;;;;;;;;4999459;28;20476;-71
2023/10/01 09:19:37;;;;;;;13.38;7.22;;;;;;;;;;5013762;28;20040;-74
2023/10/01 09:22:40;;;;;;;13.40;6.80;;;;;;;;;;5013328;28;20088;-71
2023/10/01 09:25:25;;;;;;;12.32;7.03;;;;;;;;;;5005668;28;20373;-74
2023/10/01 09:28:19;;;;;;;10.27;5.72;;;;;;;;;;5021127;28;20119;-73
2023/10/01 09:31:26;;;;;;;13.23;7.07;;;;;;;;;;5013167;28;20033;-72
2023/10/01 09:37:33;;;;;;;15.88;7.55;;;;;;;;;;5013819;28;20073;-73
2023/10/01 09:43:19;;;;;;;11.30;6.43;;;;;;;;;;5023803;23;20052;-78
2023/10/01 09:46:06;;;;;;;13.40;7.07;;;;;;;;;;4983661;28;20103;-76
2023/10/01 09:49:00;;;;;;;12.70;6.32;;;;;;;;;;4996982;28;20410;-77
2023/10/01 09:51:46;;;;;;;14.00;7.47;;;;;;;;;;4983345;28;20062;-76
2023/10/01 09:54:41;;;;;;;11.82;6.28;;;;;;;;;;4996864;28;20026;-76
2023/10/01 09:57:27;;;;;;;15.30;7.38;;;;;;;;;;4996781;28;20072;-76
2023/10/01 10:00:17;;;;;;;12.65;6.95;;;;;;;;;;4972473;28;20486;-73
2023/10/01 10:03:03;;;;;;;14.60;7.15;;;;;;;;;;4987317;28;20396;-70
2023/10/01 10:05:48;;;;;;;14.20;7.20;;;;;;;;;;4996538;28;20034;-69
2023/10/01 10:08:34;;;;;;;12.73;6.63;;;;;;;;;;4996636;28;20041;-69
2023/10/01 10:11:26;;;;;;;14.50;8.05;;;;;;;;;;4996693;28;20057;-70
2023/10/01 10:14:24;;;;;;;10.88;6.20;;;;;;;;;;4996257;28;20038;-72
2023/10/01 10:17:19;;;;;;;13.33;7.13;;;;;;;;;;4996233;28;20136;-72
2023/10/01 10:23:13;;;;;;;15.13;7.13;;;;;;;;;;4980950;28;20038;-74
2023/10/01 10:26:12;;;;;;;11.27;6.93;;;;;;;;;;4984951;28;20078;-72
2023/10/01 10:28:57;;;;;;;15.07;7.80;;;;;;;;;;4996475;28;20080;-74
2023/10/01 10:31:44;;;;;;;14.98;7.00;;;;;;;;;;4996065;28;20204;-72
2023/10/01 10:34:36;;;;;;;10.80;6.60;;;;;;;;;;4996090;28;20045;-69
2023/10/01 10:37:53;;;;;;;13.90;6.97;;;;;;;;;;4995993;28;20182;-69
2023/10/01 10:41:08;;;;;;;10.80;6.45;;;;;;;;;;4984154;28;20401;-68
2023/10/01 10:44:08;;;;;;;12.57;6.55;;;;;;;;;;4991211;28;20033;-69
2023/10/01 10:47:04;;;;;;;12.82;7.07;;;;;;;;;;4995666;28;20103;-67
2023/10/01 10:49:53;;;;;;;12.52;6.93;;;;;;;;;;4996009;28;20038;-68
2023/10/01 10:52:38;;;;;;;12.30;6.53;;;;;;;;;;4995979;28;20099;-77
2023/10/01 10:55:31;;;;;;;15.93;7.35;;;;;;;;;;4994794;28;20113;-80
2023/10/01 10:58:17;;;;;;;13.50;7.13;;;;;;;;;;4995174;28;20041;-69
2023/10/01 11:01:23;;;;;;;16.08;7.93;;;;;;;;;;5008945;28;20571;-69
2023/10/01 11:04:08;;;;;;;13.10;7.30;;;;;;;;;;4995402;28;20109;-70
2023/10/01 11:07:04;;;;;;;13.65;7.22;;;;;;;;;;4995705;28;20037;-69
2023/10/01 11:09:53;;;;;;;16.20;8.05;;;;;;;;;;4982339;28;20034;-69
2023/10/01 11:12:38;;;;;;;;;;;;;;;;;;5009146;28;20034;-76
2023/10/01 11:15:34;;;;;;;13.00;7.68;;;;;;;;;;5009247;28;19913;-72
2023/10/01 11:18:25;;;;;;;11.98;6.57;;;;;;;;;;5008572;28;20033;-72
2023/10/01 11:21:31;;;;;;;15.73;7.80;;;;;;;;;;4995095;28;20040;-73
2023/10/01 11:24:17;;;;;;;15.63;8.18;;;;;;;;;;5008955;28;20409;-70
2023/10/01 11:27:14;;;;;;;15.77;7.38;;;;;;;;;;4983684;28;20125;-71
2023/10/01 11:30:13;;;;;;;13.50;7.85;;;;;;;;;;5008887;28;20030;-69
2023/10/01 11:32:59;;;;;;;12.32;7.07;;;;;;;;;;4994759;28;20132;-79
2023/10/01 11:35:59;;;;;;;12.70;6.85;;;;;;;;;;4995144;28;20775;-79
2023/10/01 11:38:45;;;;;;;13.70;7.82;;;;;;;;;;4995206;28;20096;-78
2023/10/01 11:41:43;;;;;;;14.00;7.07;;;;;;;;;;5009283;28;20034;-78
2023/10/01 11:44:35;;;;;;;15.67;8.63;;;;;;;;;;4995299;28;20088;-80
2023/10/01 11:47:34;;;;;;;17.30;7.97;;;;;;;;;;4995114;28;20473;-77
2023/10/01 11:50:23;;;;;;;12.68;7.32;;;;;;;;;;5008297;28;20512;-77
2023/10/01 11:53:10;;;;;;;15.38;8.48;;;;;;;;;;4990970;28;20037;-71
2023/10/01 11:56:01;;;;;;;14.77;8.15;;;;;;;;;;4982222;28;20045;-70
2023/10/01 11:58:46;;;;;;;13.70;7.90;;;;;;;;;;4977727;28;20037;-70
2023/10/01 12:01:39;;;;;;;14.60;7.18;;;;;;;;;;4990120;28;20038;-71
2023/10/01 12:04:25;;;;;;;15.43;9.15;;;;;;;;;;4979005;28;20035;-69
2023/10/01 12:07:17;;;;;;;13.43;7.40;;;;;;;;;;4994865;28;20327;-73
2023/10/01 12:10:05;;;;;;;12.88;7.75;;;;;;;;;;4982631;28;20397;-69
2023/10/01 12:12:50;;;;;;;12.38;7.40;;;;;;;;;;4994135;28;20073;-69
2023/10/01 12:15:44;;;;;;;13.65;7.18;;;;;;;;;;4994162;28;20076;-67
2023/10/01 12:18:44;;;;;;;16.67;8.73;;;;;;;;;;4994078;28;20531;-70
2023/10/01 12:21:29;;;;;;;14.70;8.27;;;;;;;;;;4994368;28;20370;-68
2023/10/01 12:24:15;;;;;;;18.38;9.55;;;;;;;;;;4994898;28;20336;-67
2023/10/01 12:27:00;;;;;;;14.40;7.95;;;;;;;;;;4995392;28;20049;-71
2023/10/01 12:29:49;;;;;;;14.30;7.30;;;;;;;;;;4993242;28;20057;-79
2023/10/01 12:32:41;;;;;;;16.60;8.70;;;;;;;;;;4986278;28;20034;-76
2023/10/01 12:35:29;;;;;;;14.60;7.53;;;;;;;;;;4994207;28;20041;-77
2023/10/01 12:41:01;;;;;;;14.65;7.65;;;;;;;;;;4994659;28;20033;-80
2023/10/01 12:43:46;;;;;;;15.95;8.13;;;;;;;;;;4981276;28;20036;-71
2023/10/01 12:46:31;;;;;;;15.55;8.45;;;;;;;;;;4993045;28;20037;-80
2023/10/01 12:49:17;;;;;;;15.25;7.88;;;;;;;;;;4987497;28;20084;-80
2023/10/01 12:52:14;;;;;;;14.68;8.18;;;;;;;;;;4978524;28;20038;-79
2023/10/01 12:55:01;;;;;;;20.38;8.70;;;;;;;;;;4994540;28;20124;-79
2023/10/01 12:57:46;;;;;;;16.88;8.10;;;;;;;;;;4980844;28;20052;-80
2023/10/01 13:00:45;;;;;;;14.63;7.50;;;;;;;;;;4994304;28;20060;-77
2023/10/01 13:03:30;;;;;;;14.95;7.55;;;;;;;;;;4988307;28;20389;-69
2023/10/01 13:06:15;;;;;;;16.50;8.52;;;;;;;;;;4994423;28;20047;-69
2023/10/01 13:09:00;;;;;;;16.90;7.78;;;;;;;;;;4997569;28;20037;-70
2023/10/01 13:11:59;;;;;;;13.25;7.32;;;;;;;;;;4997200;28;20052;-69
2023/10/01 13:15:02;;;;;;;14.05;7.55;;;;;;;;;;4995900;28;20477;-72
2023/10/01 13:17:56;;;;;;;17.60;8.05;;;;;;;;;;4997152;28;20396;-71
2023/10/01 13:23:42;;;;;;;14.88;8.02;;;;;;;;;;4997691;28;20392;-73
2023/10/01 13:26:32;;;;;;;17.52;8.43;;;;;;;;;;4994125;28;20513;-74
2023/10/01 13:29:28;;;;;;;14.65;7.85;;;;;;;;;;4997330;28;20485;-72
2023/10/01 13:32:24;;;;;;;16.80;8.00;;;;;;;;;;4995998;28;20037;-72
2023/10/01 13:35:32;;;;;;;14.75;7.88;;;;;;;;;;4997489;28;20034;-72
2023/10/01 13:38:27;;;;;;;13.65;7.35;;;;;;;;;;4996950;28;20488;-75
2023/10/01 14:08:44;;;;;;;14.68;7.47;;;;;;;;;;4994691;28;20030;-73
2023/10/01 14:11:39;;;;;;;14.67;8.13;;;;;;;;;;4996011;28;20559;-73
2023/10/01 14:14:33;;;;;;;12.77;6.32;;;;;;;;;;4996475;28;20037;-72
2023/10/01 14:17:18;;;;;;;18.90;8.65;;;;;;;;;;4996389;28;20052;-69
2023/10/01 14:20:08;;;;;;;18.75;9.70;;;;;;;;;;4995660;28;20120;-77
2023/10/01 14:23:00;;;;;;;15.70;7.53;;;;;;;;;;4995783;28;20069;-79
2023/10/01 14:28:49;;;;;;;16.50;7.93;;;;;;;;;;4985446;28;20038;-77
2023/10/01 14:31:48;;;;;;;14.60;7.82;;;;;;;;;;4996450;28;20080;-78
2023/10/01 14:34:34;;;;;;;15.38;8.75;;;;;;;;;;4990413;28;20034;-76
2023/10/01 14:37:19;;;;;;;15.70;8.30;;;;;;;;;;4995858;28;20407;-79
2023/10/01 14:40:13;;;;;;;16.40;8.32;;;;;;;;;;5009734;28;20037;-80
2023/10/01 14:43:03;;;;;;;15.55;8.43;;;;;;;;;;4979977;28;20412;-79
2023/10/01 14:45:48;;;;;;;15.35;9.10;;;;;;;;;;4984782;28;20073;-79
2023/10/01 14:48:38;;;;;;;16.40;8.25;;;;;;;;;;4995900;28;20369;-80
2023/10/01 14:51:26;;;;;;;19.17;9.38;;;;;;;;;;4996521;28;20049;-76
2023/10/01 14:54:16;;;;;;;17.02;9.27;;;;;;;;;;4996072;28;20162;-67
2023/10/01 14:57:01;;;;;;;;;;;;;;;;;;4996253;28;20104;-75
2023/10/01 14:59:46;;;;;;;14.07;7.70;;;;;;;;;;4995608;28;19936;-73
2023/10/01 15:02:36;;;;;;;13.65;7.82;;;;;;;;;;4995204;28;20452;-74
2023/10/01 15:05:23;;;;;;;16.63;7.97;;;;;;;;;;4995596;28;20051;-75
2023/10/01 15:08:08;;;;;;;15.85;8.32;;;;;;;;;;4995732;28;20437;-75
2023/10/01 15:10:54;;;;;;;14.63;7.88;;;;;;;;;;4995466;28;20113;-71
2023/10/01 15:13:40;;;;;;;17.42;8.23;;;;;;;;;;4995648;28;20073;-72
2023/10/01 15:16:25;;;;;;;14.05;8.55;;;;;;;;;;4995059;28;20034;-71
2023/10/01 15:19:10;;;;;;;15.52;9.18;;;;;;;;;;4992931;28;20061;-73
2023/10/01 15:22:09;;;;;;;17.48;8.50;;;;;;;;;;4995339;28;20033;-72
2023/10/01 15:24:59;;;;;;;14.73;7.65;;;;;;;;;;4991906;28;20444;-69
2023/10/01 15:27:47;;;;;;;17.20;7.78;;;;;;;;;;4988908;28;20045;-69
2023/10/01 15:30:35;;;;;;;15.85;7.72;;;;;;;;;;4994883;28;20480;-73
2023/10/01 15:33:20;;;;;;;14.75;7.88;;;;;;;;;;4994961;28;20046;-72
2023/10/01 15:36:06;;;;;;;16.80;9.88;;;;;;;;;;4995064;28;20541;-72
2023/10/01 15:38:51;;;;;;;17.50;9.80;;;;;;;;;;4994708;28;20054;-73
2023/10/01 15:41:41;;;;;;;17.77;8.57;;;;;;;;;;4994908;28;20046;-73
2023/10/01 15:44:26;;;;;;;14.43;6.90;;;;;;;;;;4994920;28;20048;-72
2023/10/01 15:47:12;;;;;;;16.58;8.73;;;;;;;;;;4994338;28;20040;-69
2023/10/01 15:50:05;;;;;;;15.50;8.15;;;;;;;;;;4981394;28;20421;-79
2023/10/01 15:52:51;;;;;;;15.52;8.30;;;;;;;;;;4994995;28;20030;-78
2023/10/01 15:55:40;;;;;;;15.75;8.80;;;;;;;;;;4995723;28;20076;-77
2023/10/01 15:58:25;;;;;;;19.60;10.48;;;;;;;;;;4994786;28;20033;-77
2023/10/01 16:01:23;;;;;;;19.73;10.02;;;;;;;;;;4994758;28;20455;-79
2023/10/01 16:04:14;;;;;;;19.13;10.27;;;;;;;;;;4995120;28;20041;-77
2023/10/01 16:07:03;;;;;;;17.75;8.73;;;;;;;;;;4992857;28;20048;-68
2023/10/01 16:09:48;;;;;;;16.27;8.43;;;;;;;;;;4980803;28;20551;-68
2023/10/01 16:12:36;;;;;;;20.38;8.52;;;;;;;;;;4994116;28;20108;-67
2023/10/01 16:15:22;;;;;;;15.63;7.35;;;;;;;;;;4994830;28;20034;-68
2023/10/01 16:18:10;;;;;;;15.60;8.05;;;;;;;;;;4994173;28;20429;-70
2023/10/01 16:20:56;;;;;;;13.77;7.28;;;;;;;;;;5008057;28;20204;-70
2023/10/01 16:23:41;;;;;;;14.65;7.85;;;;;;;;;;4994671;28;20315;-68
2023/10/01 16:26:29;;;;;;;17.42;10.05;;;;;;;;;;4981677;28;20026;-70
2023/10/01 16:29:17;;;;;;;17.85;9.63;;;;;;;;;;4993637;28;20381;-73
2023/10/01 16:32:03;;;;;;;16.95;11.18;;;;;;;;;;4993913;28;20429;-72
2023/10/01 16:34:48;;;;;;;18.08;10.68;;;;;;;;;;4993522;28;20045;-72
2023/10/01 16:37:39;;;;;;;24.85;12.43;;;;;;;;;;4994394;28;20033;-72
2023/10/01 16:40:25;;;;;;;17.60;10.40;;;;;;;;;;4994229;28;20208;-72
2023/10/01 16:43:18;;;;;;;19.08;9.90;;;;;;;;;;4998095;28;20189;-69
2023/10/01 16:46:04;;;;;;;20.40;10.38;;;;;;;;;;4984480;28;20108;-77
2023/10/01 16:48:50;;;;;;;17.10;10.70;;;;;;;;;;4984336;28;20030;-76
2023/10/01 16:51:43;;;;;;;17.00;10.35;;;;;;;;;;4998026;28;20038;-76
2023/10/01 16:54:38;;;;;;;17.02;8.95;;;;;;;;;;4998086;28;20392;-75
2023/10/01 16:57:25;;;;;;;17.45;8.95;;;;;;;;;;4997577;28;20500;-76
2023/10/01 17:00:14;;;;;;;16.35;8.52;;;;;;;;;;4979185;28;20041;-75
2023/10/01 17:03:03;;;;;;;15.82;9.38;;;;;;;;;;4984485;28;20065;-77
2023/10/01 17:05:48;;;;;;;17.63;9.75;;;;;;;;;;4995699;28;20038;-72
2023/10/01 17:08:40;;;;;;;19.98;10.18;;;;;;;;;;4987887;28;20045;-73
2023/10/01 17:11:27;;;;;;;18.05;10.38;;;;;;;;;;4996739;28;20546;-72
2023/10/01 17:14:14;;;;;;;21.25;10.43;;;;;;;;;;4997286;28;20033;-72
2023/10/01 17:17:02;;;;;;;16.80;8.70;;;;;;;;;;4995448;28;20320;-72
2023/10/01 17:19:48;;;;;;;17.00;8.90;;;;;;;;;;4995965;28;20464;-78
2023/10/01 17:22:33;;;;;;;16.60;8.07;;;;;;;;;;4978131;28;20073;-71
2023/10/01 17:25:26;;;;;;;20.10;8.20;;;;;;;;;;4979401;28;20038;-68
2023/10/01 17:28:27;;;;;;;17.40;9.63;;;;;;;;;;4994919;28;20041;-70
2023/10/01 17:31:17;;;;;;;16.35;9.30;;;;;;;;;;5006135;28;20084;-70
2023/10/01 17:34:03;;;;;;;14.65;8.00;;;;;;;;;;4998858;28;20069;-69
2023/10/01 17:36:48;;;;;;;16.30;7.93;;;;;;;;;;5011048;28;20068;-69
2023/10/01 17:39:37;;;;;;;16.20;8.05;;;;;;;;;;4997253;28;20041;-69
2023/10/01 17:42:22;;;;;;;16.80;8.32;;;;;;;;;;4997739;28;20042;-76
2023/10/01 17:45:11;;;;;;;17.85;8.27;;;;;;;;;;4997268;28;20496;-76
2023/10/01 17:47:57;;;;;;;16.50;8.65;;;;;;;;;;5010377;28;20072;-75
2023/10/01 17:50:50;;;;;;;14.18;7.38;;;;;;;;;;5010429;28;20493;-76
2023/10/01 17:53:36;;;;;;;18.38;8.85;;;;;;;;;;4992446;28;20049;-75
2023/10/01 17:56:22;;;;;;;14.52;8.02;;;;;;;;;;4983544;28;20034;-70
2023/10/01 17:59:18;;;;;;;16.63;8.30;;;;;;;;;;4996803;28;20103;-76
2023/10/01 18:02:06;;;;;;;16.25;8.13;;;;;;;;;;4996738;28;20103;-77